createdAt,value
2023-03-29T00:00:14.380Z,2.03
2023-03-29T00:02:42.624Z,2.37
2023-03-29T00:05:12.351Z,2.40
2023-03-29T00:07:40.450Z,1.70
2023-03-29T00:10:11.960Z,2.30
2023-03-29T00:12:41.639Z,1.47
2023-03-29T00:15:10.612Z,1.90
2023-03-29T00:17:39.982Z,1.90
2023-03-29T00:20:10.332Z,1.93
2023-03-29T00:22:39.866Z,2.20
2023-03-29T00:25:10.048Z,2.07
2023-03-29T00:27:38.735Z,2.33
2023-03-29T00:30:08.973Z,2.20
2023-03-29T00:32:37.199Z,2.20
2023-03-29T00:35:06.421Z,2.27
2023-03-29T00:37:35.611Z,2.17
2023-03-29T00:40:07.810Z,1.97
2023-03-29T00:42:37.411Z,2.20
2023-03-29T00:45:08.738Z,2.30
2023-03-29T00:47:41.567Z,2.10
2023-03-29T00:50:15.843Z,1.67
2023-03-29T00:52:50.626Z,2.33
2023-03-29T00:55:22.819Z,1.87
2023-03-29T00:57:55.773Z,1.90
2023-03-29T01:00:34.120Z,2.13
2023-03-29T01:03:07.145Z,2.00
2023-03-29T01:05:40.492Z,2.20
2023-03-29T01:08:12.526Z,1.80
2023-03-29T01:10:45.035Z,2.17
2023-03-29T01:13:18.386Z,1.90
2023-03-29T01:15:47.997Z,1.67
2023-03-29T01:18:15.946Z,2.00
2023-03-29T01:21:15.211Z,1.60
2023-03-29T01:24:22.191Z,2.47
2023-03-29T01:26:58.499Z,1.83
2023-03-29T01:29:30.365Z,2.07
2023-03-29T01:32:03.306Z,2.03
2023-03-29T01:34:37.343Z,1.90
2023-03-29T01:37:10.215Z,1.60
2023-03-29T01:39:38.094Z,1.93
2023-03-29T01:42:16.651Z,1.63
2023-03-29T01:44:52.370Z,1.53
2023-03-29T01:47:28.767Z,1.70
2023-03-29T01:50:06.686Z,1.63
2023-03-29T01:52:37.614Z,2.00
2023-03-29T01:55:09.977Z,1.90
2023-03-29T01:57:40.905Z,1.97
2023-03-29T02:00:15.359Z,1.50
2023-03-29T02:02:45.479Z,1.80
2023-03-29T02:05:16.272Z,1.80
2023-03-29T02:07:46.196Z,1.50
2023-03-29T02:10:15.579Z,2.00
2023-03-29T02:12:43.570Z,1.83
2023-03-29T02:15:15.848Z,1.90
2023-03-29T02:17:44.965Z,2.20
2023-03-29T02:20:19.562Z,2.17
2023-03-29T02:22:53.382Z,1.80
2023-03-29T02:25:22.845Z,2.17
2023-03-29T02:27:51.035Z,1.40
2023-03-29T02:30:24.693Z,1.70
2023-03-29T02:32:59.518Z,1.87
2023-03-29T02:35:35.135Z,1.57
2023-03-29T02:38:06.465Z,1.90
2023-03-29T02:40:36.018Z,1.60
2023-03-29T02:43:04.978Z,1.83
2023-03-29T02:45:37.036Z,1.43
2023-03-29T02:48:10.086Z,1.50
2023-03-29T02:50:40.861Z,2.00
2023-03-29T02:53:17.265Z,2.10
2023-03-29T02:55:46.920Z,1.80
2023-03-29T02:58:15.682Z,1.70
2023-03-29T03:00:47.390Z,2.00
2023-03-29T03:03:16.855Z,1.50
2023-03-29T03:05:45.026Z,1.80
2023-03-29T03:08:14.103Z,1.80
2023-03-29T03:10:42.217Z,1.93
2023-03-29T03:13:10.200Z,2.00
2023-03-29T03:15:42.674Z,1.73
2023-03-29T03:18:12.794Z,1.67
2023-03-29T03:20:40.953Z,1.70
2023-03-29T03:23:10.755Z,1.83
2023-03-29T03:25:38.787Z,1.40
2023-03-29T03:28:06.909Z,1.40
2023-03-29T03:30:35.070Z,1.70
2023-03-29T03:33:02.976Z,1.63
2023-03-29T03:35:32.399Z,1.50
2023-03-29T03:38:00.338Z,1.57
2023-03-29T03:40:28.448Z,1.23
2023-03-29T03:42:56.359Z,1.80
2023-03-29T03:45:24.786Z,1.53
2023-03-29T03:47:52.954Z,1.50
2023-03-29T03:50:20.897Z,1.80
2023-03-29T03:52:50.236Z,1.60
2023-03-29T03:55:18.276Z,1.90
2023-03-29T03:57:48.004Z,1.67
2023-03-29T04:00:21.364Z,1.57
2023-03-29T04:02:49.918Z,1.80
2023-03-29T04:05:18.252Z,1.60
2023-03-29T04:07:46.141Z,1.67
2023-03-29T04:10:15.816Z,1.33
2023-03-29T04:12:45.269Z,1.13
2023-03-29T04:15:13.820Z,1.30
2023-03-29T04:17:41.825Z,1.90
2023-03-29T04:20:12.676Z,1.67
2023-03-29T04:22:42.678Z,1.60
2023-03-29T04:25:11.765Z,1.67
2023-03-29T04:27:41.420Z,1.40
2023-03-29T04:30:10.690Z,1.10
2023-03-29T04:32:38.674Z,1.53
2023-03-29T04:35:06.961Z,1.17
2023-03-29T04:37:35.248Z,1.60
2023-03-29T04:40:04.898Z,1.80
2023-03-29T04:42:34.293Z,1.83
2023-03-29T04:45:03.554Z,1.40
2023-03-29T04:47:31.543Z,1.43
2023-03-29T04:49:59.491Z,1.40
2023-03-29T04:52:27.548Z,1.57
2023-03-29T04:54:55.810Z,1.80
2023-03-29T04:57:23.848Z,1.37
2023-03-29T04:59:51.906Z,1.67
2023-03-29T05:02:22.136Z,1.37
2023-03-29T05:04:50.485Z,1.53
2023-03-29T05:07:19.530Z,1.70
2023-03-29T05:09:47.503Z,1.67
2023-03-29T05:12:15.486Z,1.60
2023-03-29T05:14:43.376Z,1.43
2023-03-29T05:17:11.319Z,1.27
2023-03-29T05:19:40.568Z,1.60
2023-03-29T05:22:09.235Z,1.40
2023-03-29T05:24:37.498Z,1.07
2023-03-29T05:27:05.490Z,1.07
2023-03-29T05:29:33.786Z,1.37
2023-03-29T05:32:01.783Z,1.33
2023-03-29T05:34:31.063Z,1.03
2023-03-29T05:37:01.523Z,1.47
2023-03-29T05:39:29.616Z,1.60
2023-03-29T05:41:58.737Z,1.50
2023-03-29T05:44:26.854Z,1.50
2023-03-29T05:46:54.806Z,1.50
2023-03-29T05:49:22.687Z,1.70
2023-03-29T05:51:52.061Z,1.90
2023-03-29T05:54:21.599Z,1.10
2023-03-29T05:56:49.669Z,1.70
2023-03-29T05:59:18.143Z,1.47
2023-03-29T06:01:47.048Z,0.97
2023-03-29T06:04:15.908Z,1.40
2023-03-29T06:06:43.943Z,1.70
2023-03-29T06:09:12.004Z,1.20
2023-03-29T06:11:41.494Z,1.50
2023-03-29T06:14:09.441Z,1.07
2023-03-29T06:16:38.085Z,1.60
2023-03-29T06:19:07.360Z,1.40
2023-03-29T06:21:35.734Z,1.47
2023-03-29T06:24:04.142Z,1.13
2023-03-29T06:26:32.230Z,1.77
2023-03-29T06:29:01.613Z,1.50
2023-03-29T06:31:30.128Z,1.63
2023-03-29T06:33:58.796Z,1.60
2023-03-29T06:36:26.990Z,1.43
2023-03-29T06:38:55.439Z,1.67
2023-03-29T06:41:23.809Z,1.40
2023-03-29T06:43:51.847Z,1.57
2023-03-29T06:46:21.114Z,1.77
2023-03-29T06:48:49.048Z,1.67
2023-03-29T06:51:17.252Z,1.13
2023-03-29T06:53:45.689Z,1.70
2023-03-29T06:56:14.629Z,1.33
2023-03-29T06:58:43.008Z,1.13
2023-03-29T07:01:11.607Z,1.07
2023-03-29T07:03:41.367Z,1.60
2023-03-29T07:06:11.791Z,1.10
2023-03-29T07:08:43.770Z,1.17
2023-03-29T07:11:13.866Z,0.87
2023-03-29T07:13:42.700Z,0.80
2023-03-29T07:16:12.751Z,1.30
2023-03-29T07:18:44.109Z,1.13
2023-03-29T07:21:14.089Z,1.10
2023-03-29T07:23:42.483Z,0.80
2023-03-29T07:26:11.232Z,0.90
2023-03-29T07:28:41.013Z,1.30
2023-03-29T07:31:11.982Z,1.03
2023-03-29T07:33:40.842Z,1.30
2023-03-29T07:36:11.745Z,0.63
2023-03-29T07:38:39.699Z,2.30
2023-03-29T07:41:09.003Z,1.30
2023-03-29T07:43:36.951Z,0.90
2023-03-29T07:46:07.016Z,1.40
2023-03-29T07:48:37.128Z,1.10
2023-03-29T07:51:06.181Z,2.47
2023-03-29T07:53:35.548Z,2.30
2023-03-29T07:56:03.553Z,2.70
2023-03-29T07:58:31.480Z,1.00
2023-03-29T08:01:01.351Z,1.13
2023-03-29T08:03:29.576Z,1.20
2023-03-29T08:05:57.513Z,0.80
2023-03-29T08:08:25.393Z,0.60
2023-03-29T08:10:54.748Z,1.10
2023-03-29T08:13:22.602Z,0.87
2023-03-29T08:15:50.670Z,0.80
2023-03-29T08:18:18.742Z,1.03
2023-03-29T08:20:46.788Z,1.30
2023-03-29T08:23:14.719Z,1.17
2023-03-29T08:25:42.570Z,1.30
2023-03-29T08:28:15.440Z,1.00
2023-03-29T08:30:43.545Z,1.93
2023-03-29T08:33:12.265Z,0.97
2023-03-29T08:35:40.480Z,1.23
2023-03-29T08:38:08.560Z,1.00
2023-03-29T08:40:36.737Z,0.80
2023-03-29T08:43:37.129Z,1.10
2023-03-29T08:46:19.365Z,1.37
2023-03-29T08:48:53.810Z,1.47
2023-03-29T08:51:24.823Z,0.90
2023-03-29T08:53:57.557Z,0.90
2023-03-29T08:56:31.518Z,0.70
2023-03-29T08:59:02.337Z,0.40
2023-03-29T09:01:35.423Z,0.27
2023-03-29T09:04:09.031Z,1.10
2023-03-29T09:06:43.143Z,0.50
2023-03-29T09:09:15.871Z,1.90
2023-03-29T09:11:58.525Z,1.10
2023-03-29T09:14:47.409Z,0.70
2023-03-29T09:17:28.604Z,0.40
2023-03-29T09:20:06.431Z,0.90
2023-03-29T09:22:45.820Z,0.67
2023-03-29T09:25:24.917Z,1.20
2023-03-29T09:28:01.448Z,0.57
2023-03-29T09:30:33.174Z,0.70
2023-03-29T09:33:11.831Z,0.63
2023-03-29T09:35:43.440Z,0.60
2023-03-29T09:38:14.025Z,0.67
2023-03-29T09:40:46.384Z,0.83
2023-03-29T09:43:18.428Z,0.50
2023-03-29T09:45:54.737Z,0.70
2023-03-29T09:48:26.217Z,0.90
2023-03-29T09:50:54.346Z,0.70
2023-03-29T09:53:23.114Z,0.40
2023-03-29T09:55:52.483Z,0.90
2023-03-29T09:58:24.679Z,0.70
2023-03-29T10:00:53.222Z,0.77
2023-03-29T10:03:23.907Z,0.80
2023-03-29T10:05:55.297Z,0.50
2023-03-29T10:08:28.329Z,0.50
2023-03-29T10:10:58.615Z,0.90
2023-03-29T10:13:30.660Z,0.73
2023-03-29T10:16:02.549Z,0.60
2023-03-29T10:18:33.782Z,0.90
2023-03-29T10:21:03.739Z,0.60
2023-03-29T10:23:33.925Z,0.60
2023-03-29T10:26:04.305Z,0.83
2023-03-29T10:28:34.329Z,0.60
2023-03-29T10:31:04.118Z,0.70
2023-03-29T10:33:35.845Z,0.90
2023-03-29T10:36:08.112Z,0.70
2023-03-29T10:38:37.684Z,0.80
2023-03-29T10:41:10.063Z,0.97
2023-03-29T10:43:39.723Z,0.67
2023-03-29T10:46:10.878Z,0.70
2023-03-29T10:48:41.191Z,0.67
2023-03-29T10:51:15.917Z,1.03
2023-03-29T10:53:44.178Z,0.77
2023-03-29T10:56:29.874Z,0.73
2023-03-29T10:59:24.359Z,1.10
2023-03-29T11:02:26.092Z,1.43
2023-03-29T11:05:06.542Z,0.70
2023-03-29T11:07:37.085Z,5.27
2023-03-29T11:10:26.104Z,1.43
2023-03-29T11:13:00.893Z,2.20
2023-03-29T11:15:42.252Z,1.00
2023-03-29T11:18:30.570Z,4.40
2023-03-29T11:21:10.712Z,1.80
2023-03-29T11:23:50.849Z,1.17
2023-03-29T11:26:24.608Z,1.73
2023-03-29T11:28:58.999Z,1.17
2023-03-29T11:31:38.977Z,2.73
2023-03-29T11:34:22.081Z,0.97
2023-03-29T11:36:58.563Z,2.03
2023-03-29T11:39:34.092Z,0.90
2023-03-29T11:42:09.358Z,0.80
2023-03-29T11:44:38.618Z,1.10
2023-03-29T11:47:14.032Z,1.77
2023-03-29T11:49:46.897Z,0.87
2023-03-29T11:52:19.862Z,1.20
2023-03-29T11:54:53.552Z,0.93
2023-03-29T11:57:27.237Z,0.70
2023-03-29T12:00:00.492Z,0.80
2023-03-29T12:02:33.706Z,0.93
2023-03-29T12:05:08.180Z,0.80
2023-03-29T12:07:43.121Z,0.73
2023-03-29T12:10:18.542Z,0.83
2023-03-29T12:12:50.066Z,0.63
2023-03-29T12:15:21.532Z,0.83
2023-03-29T12:18:00.254Z,0.97
2023-03-29T12:20:32.108Z,0.57
2023-03-29T12:23:01.918Z,1.20
2023-03-29T12:25:34.160Z,1.17
2023-03-29T12:28:17.536Z,0.40
2023-03-29T12:30:57.513Z,0.60
2023-03-29T12:33:42.656Z,1.00
2023-03-29T12:36:21.782Z,0.90
2023-03-29T12:38:53.220Z,0.83
2023-03-29T12:41:22.899Z,0.97
2023-03-29T12:43:52.136Z,0.90
2023-03-29T12:46:24.080Z,0.90
2023-03-29T12:48:57.154Z,0.93
2023-03-29T12:51:31.844Z,1.20
2023-03-29T12:54:09.789Z,0.97
2023-03-29T12:56:41.543Z,1.10
2023-03-29T12:59:25.702Z,1.08
2023-03-29T13:02:01.107Z,1.20
2023-03-29T13:04:39.504Z,0.90
2023-03-29T13:07:15.530Z,0.73
2023-03-29T13:09:53.030Z,0.80
2023-03-29T13:12:26.758Z,0.90
2023-03-29T13:14:56.773Z,0.93
2023-03-29T13:17:35.280Z,1.10
2023-03-29T13:20:34.929Z,0.90
2023-03-29T13:23:18.546Z,0.87
2023-03-29T13:26:02.346Z,1.00
2023-03-29T13:28:38.413Z,1.00
2023-03-29T13:31:19.364Z,0.87
2023-03-29T13:33:58.562Z,0.90
2023-03-29T13:36:39.724Z,0.80
2023-03-29T13:39:08.479Z,0.93
2023-03-29T13:41:49.274Z,0.77
2023-03-29T13:44:29.523Z,0.80
2023-03-29T13:47:06.900Z,1.10
2023-03-29T13:49:36.728Z,0.90
2023-03-29T13:52:16.058Z,0.60
2023-03-29T13:54:54.466Z,0.83
2023-03-29T13:57:32.837Z,0.80
2023-03-29T14:00:07.235Z,0.73
2023-03-29T14:02:41.910Z,0.80
2023-03-29T14:05:14.385Z,1.43
2023-03-29T14:07:50.060Z,0.83
2023-03-29T14:10:29.197Z,0.70
2023-03-29T14:13:04.325Z,0.50
2023-03-29T14:15:45.820Z,1.10
2023-03-29T14:18:17.604Z,0.53
2023-03-29T14:20:50.307Z,0.83
2023-03-29T14:23:22.522Z,0.60
2023-03-29T14:25:51.051Z,1.20
2023-03-29T14:28:25.336Z,1.70
2023-03-29T14:30:53.732Z,1.50
2023-03-29T14:33:29.760Z,1.10
2023-03-29T14:36:00.871Z,1.27
2023-03-29T14:38:29.888Z,1.20
2023-03-29T14:41:03.497Z,1.23
2023-03-29T14:43:33.256Z,1.20
2023-03-29T14:46:06.360Z,1.03
2023-03-29T14:48:36.562Z,1.00
2023-03-29T14:51:10.536Z,1.50
2023-03-29T14:53:39.583Z,1.10
2023-03-29T14:56:13.217Z,1.30
2023-03-29T14:58:47.613Z,1.00
2023-03-29T15:01:18.498Z,0.70
2023-03-29T15:03:54.820Z,1.43
2023-03-29T15:06:25.300Z,0.50
2023-03-29T15:09:04.493Z,1.27
2023-03-29T15:11:35.213Z,1.40
2023-03-29T15:14:08.975Z,1.03
2023-03-29T15:16:41.415Z,0.53
2023-03-29T15:19:17.712Z,0.93
2023-03-29T15:21:48.998Z,0.80
2023-03-29T15:24:23.373Z,0.87
2023-03-29T15:27:03.212Z,1.07
2023-03-29T15:29:41.925Z,1.80
2023-03-29T15:32:11.696Z,1.30
2023-03-29T15:34:39.689Z,1.40
2023-03-29T15:37:08.133Z,1.23
2023-03-29T15:39:36.655Z,1.30
2023-03-29T15:42:04.587Z,1.30
2023-03-29T15:44:35.326Z,0.80
2023-03-29T15:47:04.956Z,1.17
2023-03-29T15:49:32.929Z,1.53
2023-03-29T15:52:00.863Z,0.90
2023-03-29T15:54:30.948Z,1.30
2023-03-29T15:57:04.568Z,1.30
2023-03-29T15:59:33.151Z,1.13
2023-03-29T16:02:02.041Z,2.03
2023-03-29T16:04:31.354Z,2.60
2023-03-29T16:06:59.486Z,2.57
2023-03-29T16:09:27.486Z,1.50
2023-03-29T16:11:55.341Z,1.37
2023-03-29T16:14:27.127Z,1.20
2023-03-29T16:16:55.868Z,1.93
2023-03-29T16:19:25.701Z,2.40
2023-03-29T16:21:55.958Z,2.27
2023-03-29T16:24:26.467Z,2.50
2023-03-29T16:26:56.482Z,3.07
2023-03-29T16:29:24.661Z,4.17
2023-03-29T16:31:53.419Z,3.77
2023-03-29T16:34:22.895Z,2.70
2023-03-29T16:36:53.007Z,2.57
2023-03-29T16:39:22.444Z,2.80
2023-03-29T16:41:50.690Z,2.53
2023-03-29T16:44:23.924Z,2.00
2023-03-29T16:46:54.000Z,2.60
2023-03-29T16:49:22.489Z,2.90
2023-03-29T16:51:50.449Z,2.30
2023-03-29T16:54:18.963Z,2.67
2023-03-29T16:56:48.303Z,2.27
2023-03-29T16:59:16.712Z,2.53
2023-03-29T17:01:45.040Z,2.27
2023-03-29T17:04:13.035Z,2.10
2023-03-29T17:06:42.100Z,2.07
2023-03-29T17:09:17.751Z,1.80
2023-03-29T17:11:46.130Z,2.90
2023-03-29T17:14:15.694Z,1.57
2023-03-29T17:16:43.832Z,1.20
2023-03-29T17:19:11.793Z,1.63
2023-03-29T17:21:39.708Z,1.43
2023-03-29T17:24:09.773Z,1.87
2023-03-29T17:26:38.571Z,1.63
2023-03-29T17:29:06.732Z,2.07
2023-03-29T17:31:36.642Z,1.90
2023-03-29T17:34:06.204Z,1.53
2023-03-29T17:36:34.177Z,1.70
2023-03-29T17:39:02.945Z,1.60
2023-03-29T17:41:31.318Z,1.80
2023-03-29T17:43:59.397Z,2.43
2023-03-29T17:46:27.355Z,2.20
2023-03-29T17:48:59.146Z,1.70
2023-03-29T17:51:28.275Z,2.00
2023-03-29T17:53:58.706Z,2.17
2023-03-29T17:56:26.700Z,1.70
2023-03-29T17:58:54.882Z,1.70
2023-03-29T18:01:23.012Z,1.90
2023-03-29T18:03:51.198Z,1.80
2023-03-29T18:06:21.003Z,1.50
2023-03-29T18:08:49.138Z,1.50
2023-03-29T18:11:22.426Z,2.07
2023-03-29T18:13:51.044Z,1.70
2023-03-29T18:16:19.366Z,1.93
2023-03-29T18:18:47.621Z,1.30
2023-03-29T18:21:16.086Z,1.70
2023-03-29T18:23:47.690Z,1.50
2023-03-29T18:26:16.813Z,1.50
2023-03-29T18:28:46.668Z,1.50
2023-03-29T18:31:15.364Z,1.37
2023-03-29T18:33:43.403Z,1.70
2023-03-29T18:36:13.565Z,1.70
2023-03-29T18:38:43.421Z,1.80
2023-03-29T18:41:14.340Z,1.90
2023-03-29T18:43:44.405Z,1.33
2023-03-29T18:46:12.553Z,1.40
2023-03-29T18:48:41.147Z,2.53
2023-03-29T18:51:10.400Z,1.40
2023-03-29T18:53:42.059Z,1.80
2023-03-29T18:56:10.188Z,1.30
2023-03-29T18:58:39.564Z,1.60
2023-03-29T19:01:09.685Z,1.57
2023-03-29T19:03:37.983Z,1.80
2023-03-29T19:06:07.147Z,1.50
2023-03-29T19:08:36.736Z,1.30
2023-03-29T19:11:07.154Z,1.73
2023-03-29T19:13:35.864Z,1.40
2023-03-29T19:16:05.892Z,1.90
2023-03-29T19:18:34.690Z,1.73
2023-03-29T19:21:02.679Z,1.70
2023-03-29T19:23:30.594Z,1.53
2023-03-29T19:26:01.339Z,1.63
2023-03-29T19:28:30.501Z,1.33
2023-03-29T19:31:00.723Z,1.40
2023-03-29T19:33:30.542Z,1.10
2023-03-29T19:35:58.647Z,1.13
2023-03-29T19:38:26.624Z,1.20
2023-03-29T19:40:54.599Z,1.27
2023-03-29T19:43:22.602Z,1.40
2023-03-29T19:45:52.442Z,1.40
2023-03-29T19:48:23.350Z,1.40
2023-03-29T19:50:53.304Z,1.50
2023-03-29T19:53:21.530Z,1.20
2023-03-29T19:55:49.925Z,1.40
2023-03-29T19:58:17.843Z,1.07
2023-03-29T20:00:46.708Z,1.20
2023-03-29T20:03:15.705Z,1.17
2023-03-29T20:05:44.305Z,1.40
2023-03-29T20:08:13.761Z,1.33
2023-03-29T20:10:41.701Z,1.50
2023-03-29T20:13:09.682Z,1.60
2023-03-29T20:15:37.613Z,1.23
2023-03-29T20:18:06.105Z,1.50
2023-03-29T20:20:35.757Z,1.20
2023-03-29T20:23:05.508Z,1.20
2023-03-29T20:25:36.268Z,1.20
2023-03-29T20:28:04.788Z,1.23
2023-03-29T20:30:32.818Z,1.20
2023-03-29T20:33:00.948Z,1.23
2023-03-29T20:35:28.925Z,0.87
2023-03-29T20:37:56.885Z,1.40
2023-03-29T20:40:25.146Z,1.37
2023-03-29T20:42:55.010Z,2.40
2023-03-29T20:45:22.975Z,1.10
2023-03-29T20:47:57.816Z,1.03
2023-03-29T20:50:29.319Z,0.90
2023-03-29T20:53:02.299Z,1.40
2023-03-29T20:55:33.265Z,1.07
2023-03-29T20:58:03.412Z,1.10
2023-03-29T21:00:35.430Z,1.07
2023-03-29T21:03:04.645Z,1.50
2023-03-29T21:05:34.016Z,1.93
2023-03-29T21:08:02.505Z,1.10
2023-03-29T21:10:30.943Z,1.20
2023-03-29T21:13:00.642Z,1.30
2023-03-29T21:15:31.975Z,1.50
2023-03-29T21:17:59.993Z,1.40
2023-03-29T21:20:28.663Z,1.13
2023-03-29T21:22:56.586Z,1.23
2023-03-29T21:25:24.504Z,1.00
2023-03-29T21:27:52.395Z,1.07
2023-03-29T21:30:20.282Z,1.10
2023-03-29T21:32:49.640Z,1.43
2023-03-29T21:35:17.711Z,1.17
2023-03-29T21:37:45.620Z,0.97
2023-03-29T21:40:14.638Z,1.00
2023-03-29T21:42:42.577Z,1.30
2023-03-29T21:45:11.971Z,1.03
2023-03-29T21:47:39.924Z,1.00
2023-03-29T21:50:10.793Z,0.90
2023-03-29T21:52:39.071Z,0.90
2023-03-29T21:55:07.754Z,0.83
2023-03-29T21:57:35.681Z,1.07
2023-03-29T22:00:05.534Z,1.17
2023-03-29T22:02:33.507Z,1.40
2023-03-29T22:05:01.413Z,0.90
2023-03-29T22:07:30.706Z,1.00
2023-03-29T22:10:04.275Z,1.17
2023-03-29T22:12:34.532Z,0.80
2023-03-29T22:15:02.955Z,1.10
2023-03-29T22:17:30.996Z,1.03
2023-03-29T22:19:59.013Z,1.20
2023-03-29T22:22:27.091Z,1.10
2023-03-29T22:24:57.044Z,0.90
2023-03-29T22:27:25.248Z,1.60
2023-03-29T22:29:53.243Z,1.07
2023-03-29T22:32:21.169Z,1.20
2023-03-29T22:34:49.120Z,1.00
2023-03-29T22:37:18.003Z,1.03
2023-03-29T22:39:46.465Z,1.23
2023-03-29T22:42:16.087Z,1.10
2023-03-29T22:44:44.150Z,1.17
2023-03-29T22:47:12.153Z,1.00
2023-03-29T22:49:40.038Z,0.97
2023-03-29T22:52:08.074Z,1.30
2023-03-29T22:54:36.039Z,0.90
2023-03-29T22:57:04.057Z,1.13
2023-03-29T22:59:33.411Z,1.00
2023-03-29T23:02:01.477Z,1.00
2023-03-29T23:04:29.522Z,0.83
2023-03-29T23:06:58.426Z,1.00
2023-03-29T23:09:26.346Z,1.20
2023-03-29T23:11:54.208Z,0.90
2023-03-29T23:14:22.752Z,1.10
2023-03-29T23:16:52.107Z,0.90
2023-03-29T23:19:20.162Z,1.30
2023-03-29T23:21:48.068Z,0.97
2023-03-29T23:24:19.069Z,1.00
2023-03-29T23:26:49.043Z,0.77
2023-03-29T23:29:16.917Z,1.23
2023-03-29T23:31:45.408Z,1.07
2023-03-29T23:34:14.908Z,1.10
2023-03-29T23:36:42.812Z,1.33
2023-03-29T23:39:10.727Z,1.00
2023-03-29T23:41:40.252Z,1.50
2023-03-29T23:44:08.565Z,1.27
2023-03-29T23:46:36.519Z,1.23
2023-03-29T23:49:04.494Z,0.93
2023-03-29T23:51:35.060Z,1.20
2023-03-29T23:54:05.661Z,1.07
2023-03-29T23:56:33.578Z,1.00
2023-03-29T23:59:01.507Z,1.20
